Etusivu
METAR-TAF:

METAR-TAF

Lentoasemat :

La Paz, Bolivia

El Alton kansainvälinen lentoasema

Leveyspiiri: 16-31S, Pituuspiiri: 068-11W, korkeus merenpinnasta: 4058 m

Tämänhetkinen sää

Tämä raportti tehtiin 47 minuuttia sitten, kello 20.00 UTC
Tuuli 9 kn idästä/kaakosta
Lämpötila 15°C
Kosteus 25%
Ilmanpaine 1036 hPa
Näkyvyys 10 km tai enemmän
Muutamia pilviä 1700 ft:n korkeudessa
Hajonneita pilviä 20000 ft:n korkeudessa

METAR: SLLP 212000Z 12009KT 9999 FEW017 BKN200 15/M05 Q1036

Aika: 16:47 (20:47 UTC)

Sääennuste

Tämä raportti tehtiin 4 tuntia ja 47 minuuttia sitten, kello 16.00 UTC
Ennuste voimassa 21. päivästä klo 18 UTC - 22. päivään klo 18 UTC
Tuuli 9 kn lännestä/luoteesta
Näkyvyys 10 km tai enemmän
Tulossa
21. päivästä klo 23 UTC - 22. päivään klo 01 UTC
Tuuli 4 kn koillisesta

TAF: SLLP 211600Z 2118/2218 29009KT 9999 NSC TX17/2120Z TNM05/2210Z BECMG 2123/2201 05004KT

Säähavainnot ja -ennusteet yli 4000 lentoasemalta (METAR- ja TAF-raportit).

Käytössä olevat sääasemat on merkitty karttaan keltaisilla ja punaisilla pisteillä.

Aseta hiiri pisteen päälle nähdäksesi sääaseman nimen.

Klikkaa sitten nähdäksesi säähavainnot ja -ennusteet.

Kartan vaihtaminen: klikkaa mustalla rastilla varustettuja vihreitä pisteitä, niin voit zoomata sisään; viivalla varustettua vihreää pistettä, niin voit zoomata ulos tai vihreitä nuolia, niin pääset viereisille kartoille.


METAR-TAF: